sensor_id;sensor_type;location;lat;lon;timestamp;temperature;humidity
44729;DHT22;30457;53.590;9.922;2022-12-29T00:01:31;12.00;68.10
44729;DHT22;30457;53.590;9.922;2022-12-29T00:05:57;12.10;68.10
44729;DHT22;30457;53.590;9.922;2022-12-29T00:10:23;12.10;68.20
44729;DHT22;30457;53.590;9.922;2022-12-29T00:14:49;12.10;68.30
44729;DHT22;30457;53.590;9.922;2022-12-29T00:19:33;12.10;68.20
44729;DHT22;30457;53.590;9.922;2022-12-29T00:24:20;12.10;68.20
44729;DHT22;30457;53.590;9.922;2022-12-29T00:28:52;12.10;68.20
44729;DHT22;30457;53.590;9.922;2022-12-29T00:33:53;12.20;68.20
44729;DHT22;30457;53.590;9.922;2022-12-29T00:38:40;12.20;68.20
44729;DHT22;30457;53.590;9.922;2022-12-29T00:43:27;12.20;68.20
44729;DHT22;30457;53.590;9.922;2022-12-29T00:48:13;12.20;68.20
44729;DHT22;30457;53.590;9.922;2022-12-29T00:52:38;12.30;68.20
44729;DHT22;30457;53.590;9.922;2022-12-29T00:57:05;12.30;68.30
44729;DHT22;30457;53.590;9.922;2022-12-29T01:01:32;12.30;68.30
44729;DHT22;30457;53.590;9.922;2022-12-29T01:06:01;12.40;68.30
44729;DHT22;30457;53.590;9.922;2022-12-29T01:10:26;12.40;68.30
44729;DHT22;30457;53.590;9.922;2022-12-29T01:14:52;12.40;68.10
44729;DHT22;30457;53.590;9.922;2022-12-29T01:19:19;12.50;68.10
44729;DHT22;30457;53.590;9.922;2022-12-29T01:23:45;12.50;68.10
44729;DHT22;30457;53.590;9.922;2022-12-29T01:28:10;12.50;68.10
44729;DHT22;30457;53.590;9.922;2022-12-29T01:32:37;12.50;68.00
44729;DHT22;30457;53.590;9.922;2022-12-29T01:37:02;12.60;68.20
44729;DHT22;30457;53.590;9.922;2022-12-29T01:41:28;12.60;68.20
44729;DHT22;30457;53.590;9.922;2022-12-29T01:45:54;12.60;68.20
44729;DHT22;30457;53.590;9.922;2022-12-29T01:50:26;12.70;68.30
44729;DHT22;30457;53.590;9.922;2022-12-29T01:54:55;12.70;68.30
44729;DHT22;30457;53.590;9.922;2022-12-29T01:59:26;12.70;68.30
44729;DHT22;30457;53.590;9.922;2022-12-29T02:03:53;12.70;68.30
44729;DHT22;30457;53.590;9.922;2022-12-29T02:08:20;12.80;68.30
44729;DHT22;30457;53.590;9.922;2022-12-29T02:12:47;12.80;68.30
44729;DHT22;30457;53.590;9.922;2022-12-29T02:31:52;12.90;68.60
44729;DHT22;30457;53.590;9.922;2022-12-29T02:46:26;12.90;68.40
44729;DHT22;30457;53.590;9.922;2022-12-29T02:51:03;12.90;68.40
44729;DHT22;30457;53.590;9.922;2022-12-29T02:55:29;13.00;68.40
44729;DHT22;30457;53.590;9.922;2022-12-29T03:00:03;13.00;68.20
44729;DHT22;30457;53.590;9.922;2022-12-29T03:04:44;13.00;68.20
44729;DHT22;30457;53.590;9.922;2022-12-29T03:14:12;13.10;68.20
44729;DHT22;30457;53.590;9.922;2022-12-29T03:19:04;13.10;68.10
44729;DHT22;30457;53.590;9.922;2022-12-29T03:23:32;13.20;68.00
44729;DHT22;30457;53.590;9.922;2022-12-29T03:28:06;13.20;67.90
44729;DHT22;30457;53.590;9.922;2022-12-29T03:32:52;13.20;67.90
44729;DHT22;30457;53.590;9.922;2022-12-29T03:37:25;13.30;67.80
44729;DHT22;30457;53.590;9.922;2022-12-29T03:41:58;13.30;67.70
44729;DHT22;30457;53.590;9.922;2022-12-29T03:46:25;13.30;67.60
44729;DHT22;30457;53.590;9.922;2022-12-29T03:50:52;13.40;67.60
44729;DHT22;30457;53.590;9.922;2022-12-29T03:55:18;13.40;67.50
44729;DHT22;30457;53.590;9.922;2022-12-29T03:59:43;13.40;67.50
44729;DHT22;30457;53.590;9.922;2022-12-29T04:04:10;13.40;67.30
44729;DHT22;30457;53.590;9.922;2022-12-29T04:08:36;13.40;67.20
44729;DHT22;30457;53.590;9.922;2022-12-29T04:13:01;13.50;67.20
44729;DHT22;30457;53.590;9.922;2022-12-29T04:17:27;13.50;67.10
44729;DHT22;30457;53.590;9.922;2022-12-29T04:21:53;13.50;67.10
44729;DHT22;30457;53.590;9.922;2022-12-29T04:26:19;13.50;67.00
44729;DHT22;30457;53.590;9.922;2022-12-29T04:30:53;13.50;67.00
44729;DHT22;30457;53.590;9.922;2022-12-29T04:35:24;13.50;67.00
44729;DHT22;30457;53.590;9.922;2022-12-29T04:39:50;13.60;67.10
44729;DHT22;30457;53.590;9.922;2022-12-29T04:44:16;13.60;67.10
44729;DHT22;30457;53.590;9.922;2022-12-29T04:48:58;13.60;67.10
44729;DHT22;30457;53.590;9.922;2022-12-29T04:53:44;13.60;67.00
44729;DHT22;30457;53.590;9.922;2022-12-29T04:58:10;13.60;67.10
44729;DHT22;30457;53.590;9.922;2022-12-29T05:02:37;13.70;67.10
44729;DHT22;30457;53.590;9.922;2022-12-29T05:07:02;13.70;67.20
44729;DHT22;30457;53.590;9.922;2022-12-29T05:11:28;13.70;67.20
44729;DHT22;30457;53.590;9.922;2022-12-29T05:15:54;13.70;67.30
44729;DHT22;30457;53.590;9.922;2022-12-29T05:20:22;13.70;67.50
44729;DHT22;30457;53.590;9.922;2022-12-29T05:24:47;13.70;67.60
44729;DHT22;30457;53.590;9.922;2022-12-29T05:29:14;13.70;67.70
44729;DHT22;30457;53.590;9.922;2022-12-29T05:33:41;13.70;67.80
44729;DHT22;30457;53.590;9.922;2022-12-29T05:38:07;13.70;68.00
44729;DHT22;30457;53.590;9.922;2022-12-29T05:42:33;13.70;68.10
44729;DHT22;30457;53.590;9.922;2022-12-29T05:47:16;13.80;68.20
44729;DHT22;30457;53.590;9.922;2022-12-29T05:51:49;13.70;68.10
44729;DHT22;30457;53.590;9.922;2022-12-29T05:56:15;13.70;68.80
44729;DHT22;30457;53.590;9.922;2022-12-29T06:00:41;13.80;68.00
44729;DHT22;30457;53.590;9.922;2022-12-29T06:05:08;13.80;68.00
44729;DHT22;30457;53.590;9.922;2022-12-29T06:09:35;13.80;67.80
44729;DHT22;30457;53.590;9.922;2022-12-29T06:14:02;13.80;67.60
44729;DHT22;30457;53.590;9.922;2022-12-29T06:18:28;13.80;67.60
44729;DHT22;30457;53.590;9.922;2022-12-29T06:22:55;13.80;67.60
44729;DHT22;30457;53.590;9.922;2022-12-29T06:27:22;13.80;67.50
44729;DHT22;30457;53.590;9.922;2022-12-29T06:31:49;13.90;67.60
44729;DHT22;30457;53.590;9.922;2022-12-29T06:36:16;13.90;67.40
44729;DHT22;30457;53.590;9.922;2022-12-29T06:40:42;13.90;67.30
44729;DHT22;30457;53.590;9.922;2022-12-29T06:45:30;13.90;67.10
44729;DHT22;30457;53.590;9.922;2022-12-29T06:49:55;13.90;67.00
44729;DHT22;30457;53.590;9.922;2022-12-29T06:54:21;13.90;66.90
44729;DHT22;30457;53.590;9.922;2022-12-29T06:58:46;13.90;66.90
44729;DHT22;30457;53.590;9.922;2022-12-29T07:03:12;13.90;66.90
44729;DHT22;30457;53.590;9.922;2022-12-29T07:07:38;13.80;66.80
44729;DHT22;30457;53.590;9.922;2022-12-29T07:12:03;13.80;66.80
44729;DHT22;30457;53.590;9.922;2022-12-29T07:16:29;13.80;66.70
44729;DHT22;30457;53.590;9.922;2022-12-29T07:20:55;13.80;66.80
44729;DHT22;30457;53.590;9.922;2022-12-29T07:25:21;13.80;66.80
44729;DHT22;30457;53.590;9.922;2022-12-29T07:29:47;13.80;66.80
44729;DHT22;30457;53.590;9.922;2022-12-29T07:34:12;13.80;66.70
44729;DHT22;30457;53.590;9.922;2022-12-29T07:38:38;13.80;66.70
44729;DHT22;30457;53.590;9.922;2022-12-29T07:43:03;13.80;66.70
44729;DHT22;30457;53.590;9.922;2022-12-29T07:47:36;13.80;66.60
44729;DHT22;30457;53.590;9.922;2022-12-29T07:52:01;13.80;66.40
44729;DHT22;30457;53.590;9.922;2022-12-29T07:56:27;13.80;66.30
44729;DHT22;30457;53.590;9.922;2022-12-29T08:00:54;13.80;66.20
44729;DHT22;30457;53.590;9.922;2022-12-29T08:05:20;13.80;66.20
44729;DHT22;30457;53.590;9.922;2022-12-29T08:09:45;13.80;66.20
44729;DHT22;30457;53.590;9.922;2022-12-29T08:14:11;13.80;66.20
44729;DHT22;30457;53.590;9.922;2022-12-29T08:18:36;13.80;66.10
44729;DHT22;30457;53.590;9.922;2022-12-29T08:23:02;13.80;66.00
44729;DHT22;30457;53.590;9.922;2022-12-29T08:27:28;13.80;65.90
44729;DHT22;30457;53.590;9.922;2022-12-29T08:31:53;13.80;66.00
44729;DHT22;30457;53.590;9.922;2022-12-29T08:36:19;13.80;66.00
44729;DHT22;30457;53.590;9.922;2022-12-29T08:40:45;13.80;66.20
44729;DHT22;30457;53.590;9.922;2022-12-29T08:45:10;13.70;66.20
44729;DHT22;30457;53.590;9.922;2022-12-29T08:49:36;13.80;66.40
44729;DHT22;30457;53.590;9.922;2022-12-29T08:54:02;13.80;66.50
44729;DHT22;30457;53.590;9.922;2022-12-29T08:58:28;13.80;66.40
44729;DHT22;30457;53.590;9.922;2022-12-29T09:02:53;13.80;66.30
44729;DHT22;30457;53.590;9.922;2022-12-29T09:07:19;13.80;66.50
44729;DHT22;30457;53.590;9.922;2022-12-29T09:11:45;13.90;66.70
44729;DHT22;30457;53.590;9.922;2022-12-29T09:16:10;14.00;66.40
44729;DHT22;30457;53.590;9.922;2022-12-29T09:20:36;14.00;66.20
44729;DHT22;30457;53.590;9.922;2022-12-29T09:25:03;14.10;65.90
44729;DHT22;30457;53.590;9.922;2022-12-29T09:29:28;14.10;65.60
44729;DHT22;30457;53.590;9.922;2022-12-29T09:33:54;14.10;65.50
44729;DHT22;30457;53.590;9.922;2022-12-29T09:38:20;14.20;65.50
44729;DHT22;30457;53.590;9.922;2022-12-29T09:47:51;14.30;64.40
44729;DHT22;30457;53.590;9.922;2022-12-29T09:52:22;14.30;64.60
44729;DHT22;30457;53.590;9.922;2022-12-29T09:56:52;14.30;64.10
44729;DHT22;30457;53.590;9.922;2022-12-29T10:01:35;14.30;64.20
44729;DHT22;30457;53.590;9.922;2022-12-29T10:06:28;14.30;63.30
44729;DHT22;30457;53.590;9.922;2022-12-29T10:11:03;14.30;63.20
44729;DHT22;30457;53.590;9.922;2022-12-29T10:20:27;14.30;63.30
44729;DHT22;30457;53.590;9.922;2022-12-29T10:24:55;14.30;62.20
44729;DHT22;30457;53.590;9.922;2022-12-29T10:29:24;14.30;62.50
44729;DHT22;30457;53.590;9.922;2022-12-29T10:33:56;14.30;62.00
44729;DHT22;30457;53.590;9.922;2022-12-29T10:38:30;14.20;62.00
44729;DHT22;30457;53.590;9.922;2022-12-29T10:43:02;14.20;61.70
44729;DHT22;30457;53.590;9.922;2022-12-29T10:47:35;14.20;61.10
44729;DHT22;30457;53.590;9.922;2022-12-29T10:52:03;14.30;61.50
44729;DHT22;30457;53.590;9.922;2022-12-29T10:56:34;14.20;61.50
44729;DHT22;30457;53.590;9.922;2022-12-29T11:01:00;14.30;61.10
44729;DHT22;30457;53.590;9.922;2022-12-29T11:10:21;14.30;60.50
44729;DHT22;30457;53.590;9.922;2022-12-29T11:15:19;14.30;59.90
44729;DHT22;30457;53.590;9.922;2022-12-29T11:19:45;14.30;59.90
44729;DHT22;30457;53.590;9.922;2022-12-29T11:24:29;14.40;60.90
44729;DHT22;30457;53.590;9.922;2022-12-29T11:33:41;14.40;59.90
44729;DHT22;30457;53.590;9.922;2022-12-29T11:38:20;14.40;60.00
44729;DHT22;30457;53.590;9.922;2022-12-29T11:47:27;14.50;59.60
44729;DHT22;30457;53.590;9.922;2022-12-29T11:51:54;14.50;59.10
44729;DHT22;30457;53.590;9.922;2022-12-29T11:56:34;14.50;59.50
44729;DHT22;30457;53.590;9.922;2022-12-29T12:05:46;14.50;59.20
44729;DHT22;30457;53.590;9.922;2022-12-29T12:10:28;14.50;59.20
44729;DHT22;30457;53.590;9.922;2022-12-29T12:14:57;14.50;59.10
44729;DHT22;30457;53.590;9.922;2022-12-29T12:29:04;14.40;59.40
44729;DHT22;30457;53.590;9.922;2022-12-29T12:33:36;14.40;59.40
44729;DHT22;30457;53.590;9.922;2022-12-29T12:38:19;14.40;59.40
44729;DHT22;30457;53.590;9.922;2022-12-29T12:43:20;14.40;59.40
44729;DHT22;30457;53.590;9.922;2022-12-29T12:47:57;14.40;59.60
44729;DHT22;30457;53.590;9.922;2022-12-29T12:53:09;14.40;59.80
44729;DHT22;30457;53.590;9.922;2022-12-29T13:02:56;14.40;59.70
44729;DHT22;30457;53.590;9.922;2022-12-29T13:07:49;14.40;59.60
44729;DHT22;30457;53.590;9.922;2022-12-29T13:12:40;14.40;59.60
44729;DHT22;30457;53.590;9.922;2022-12-29T13:36:50;14.20;60.40
44729;DHT22;30457;53.590;9.922;2022-12-29T13:41:45;14.10;60.60
44729;DHT22;30457;53.590;9.922;2022-12-29T13:46:23;14.00;61.00
44729;DHT22;30457;53.590;9.922;2022-12-29T13:50:55;13.90;61.10
44729;DHT22;30457;53.590;9.922;2022-12-29T13:55:35;13.90;61.40
44729;DHT22;30457;53.590;9.922;2022-12-29T14:00:15;13.80;61.60
44729;DHT22;30457;53.590;9.922;2022-12-29T14:04:59;13.70;61.90
44729;DHT22;30457;53.590;9.922;2022-12-29T14:09:51;13.60;59.10
44729;DHT22;30457;53.590;9.922;2022-12-29T14:14:23;13.40;59.20
44729;DHT22;30457;53.590;9.922;2022-12-29T14:18:50;13.20;59.50
44729;DHT22;30457;53.590;9.922;2022-12-29T14:23:28;13.00;59.90
44729;DHT22;30457;53.590;9.922;2022-12-29T14:27:55;12.90;60.40
44729;DHT22;30457;53.590;9.922;2022-12-29T14:37:02;12.60;61.20
44729;DHT22;30457;53.590;9.922;2022-12-29T14:45:57;12.50;61.90
44729;DHT22;30457;53.590;9.922;2022-12-29T14:50:38;12.40;62.20
44729;DHT22;30457;53.590;9.922;2022-12-29T14:59:42;12.40;62.60
44729;DHT22;30457;53.590;9.922;2022-12-29T15:04:24;12.30;62.60
44729;DHT22;30457;53.590;9.922;2022-12-29T15:09:23;12.30;62.90
44729;DHT22;30457;53.590;9.922;2022-12-29T15:13:50;12.30;63.10
44729;DHT22;30457;53.590;9.922;2022-12-29T15:18:26;12.20;62.90
44729;DHT22;30457;53.590;9.922;2022-12-29T15:23:03;12.20;63.30
44729;DHT22;30457;53.590;9.922;2022-12-29T15:27:29;12.20;63.50
44729;DHT22;30457;53.590;9.922;2022-12-29T15:31:56;12.20;63.70
44729;DHT22;30457;53.590;9.922;2022-12-29T15:36:25;12.20;63.70
44729;DHT22;30457;53.590;9.922;2022-12-29T15:40:57;12.20;63.80
44729;DHT22;30457;53.590;9.922;2022-12-29T15:45:30;12.20;63.80
44729;DHT22;30457;53.590;9.922;2022-12-29T15:50:04;12.20;63.90
44729;DHT22;30457;53.590;9.922;2022-12-29T15:54:31;12.20;64.00
44729;DHT22;30457;53.590;9.922;2022-12-29T15:58:57;12.20;64.00
44729;DHT22;30457;53.590;9.922;2022-12-29T16:03:25;12.20;63.90
44729;DHT22;30457;53.590;9.922;2022-12-29T16:07:56;12.20;63.70
44729;DHT22;30457;53.590;9.922;2022-12-29T16:12:34;12.20;63.50
44729;DHT22;30457;53.590;9.922;2022-12-29T16:17:02;12.20;63.40
44729;DHT22;30457;53.590;9.922;2022-12-29T16:21:33;12.10;63.30
44729;DHT22;30457;53.590;9.922;2022-12-29T16:25:59;12.10;63.20
44729;DHT22;30457;53.590;9.922;2022-12-29T16:30:32;12.00;63.20
44729;DHT22;30457;53.590;9.922;2022-12-29T16:39:39;12.00;63.20
44729;DHT22;30457;53.590;9.922;2022-12-29T16:48:50;11.90;63.10
44729;DHT22;30457;53.590;9.922;2022-12-29T16:53:28;11.90;63.10
44729;DHT22;30457;53.590;9.922;2022-12-29T16:57:55;11.80;63.20
44729;DHT22;30457;53.590;9.922;2022-12-29T17:02:23;11.80;63.20
44729;DHT22;30457;53.590;9.922;2022-12-29T17:06:49;11.80;63.40
44729;DHT22;30457;53.590;9.922;2022-12-29T17:11:34;11.80;63.50
44729;DHT22;30457;53.590;9.922;2022-12-29T17:16:18;11.80;63.70
44729;DHT22;30457;53.590;9.922;2022-12-29T17:20:43;11.80;63.70
44729;DHT22;30457;53.590;9.922;2022-12-29T17:25:19;11.80;63.70
44729;DHT22;30457;53.590;9.922;2022-12-29T17:29:45;11.80;63.80
44729;DHT22;30457;53.590;9.922;2022-12-29T17:34:12;11.80;63.90
44729;DHT22;30457;53.590;9.922;2022-12-29T17:38:38;11.80;64.10
44729;DHT22;30457;53.590;9.922;2022-12-29T17:43:04;11.80;64.20
44729;DHT22;30457;53.590;9.922;2022-12-29T17:47:29;11.80;64.20
44729;DHT22;30457;53.590;9.922;2022-12-29T17:51:56;11.80;64.30
44729;DHT22;30457;53.590;9.922;2022-12-29T17:56:22;11.90;64.40
44729;DHT22;30457;53.590;9.922;2022-12-29T18:00:49;11.90;65.20
44729;DHT22;30457;53.590;9.922;2022-12-29T18:05:23;11.90;64.50
44729;DHT22;30457;53.590;9.922;2022-12-29T18:09:50;12.00;64.40
44729;DHT22;30457;53.590;9.922;2022-12-29T18:14:16;12.00;64.40
44729;DHT22;30457;53.590;9.922;2022-12-29T18:18:43;12.00;64.30
44729;DHT22;30457;53.590;9.922;2022-12-29T18:23:29;12.00;64.20
44729;DHT22;30457;53.590;9.922;2022-12-29T18:28:04;12.10;64.00
44729;DHT22;30457;53.590;9.922;2022-12-29T18:32:29;12.10;64.00
44729;DHT22;30457;53.590;9.922;2022-12-29T18:36:55;12.10;64.00
44729;DHT22;30457;53.590;9.922;2022-12-29T18:41:27;12.10;64.00
44729;DHT22;30457;53.590;9.922;2022-12-29T18:45:53;12.10;63.80
44729;DHT22;30457;53.590;9.922;2022-12-29T18:50:19;12.10;63.80
44729;DHT22;30457;53.590;9.922;2022-12-29T18:54:45;12.10;63.70
44729;DHT22;30457;53.590;9.922;2022-12-29T18:59:10;12.10;63.70
44729;DHT22;30457;53.590;9.922;2022-12-29T19:03:36;12.10;63.70
44729;DHT22;30457;53.590;9.922;2022-12-29T19:08:02;12.10;63.70
44729;DHT22;30457;53.590;9.922;2022-12-29T19:12:27;12.10;63.90
44729;DHT22;30457;53.590;9.922;2022-12-29T19:16:53;12.10;64.10
44729;DHT22;30457;53.590;9.922;2022-12-29T19:21:20;12.10;64.20
44729;DHT22;30457;53.590;9.922;2022-12-29T19:25:47;12.10;64.20
44729;DHT22;30457;53.590;9.922;2022-12-29T19:30:13;12.10;64.40
44729;DHT22;30457;53.590;9.922;2022-12-29T19:34:39;12.20;64.40
44729;DHT22;30457;53.590;9.922;2022-12-29T19:39:04;12.20;64.40
44729;DHT22;30457;53.590;9.922;2022-12-29T19:43:30;12.20;64.50
44729;DHT22;30457;53.590;9.922;2022-12-29T19:47:55;12.10;64.40
44729;DHT22;30457;53.590;9.922;2022-12-29T19:52:22;12.10;64.50
44729;DHT22;30457;53.590;9.922;2022-12-29T19:56:47;12.20;64.50
44729;DHT22;30457;53.590;9.922;2022-12-29T20:01:16;12.20;64.60
44729;DHT22;30457;53.590;9.922;2022-12-29T20:05:47;12.20;64.70
44729;DHT22;30457;53.590;9.922;2022-12-29T20:10:13;12.10;64.50
44729;DHT22;30457;53.590;9.922;2022-12-29T20:14:39;12.10;64.60
44729;DHT22;30457;53.590;9.922;2022-12-29T20:19:05;12.00;64.40
44729;DHT22;30457;53.590;9.922;2022-12-29T20:23:31;12.00;63.90
44729;DHT22;30457;53.590;9.922;2022-12-29T20:27:58;11.90;63.70
44729;DHT22;30457;53.590;9.922;2022-12-29T20:32:24;11.80;63.50
44729;DHT22;30457;53.590;9.922;2022-12-29T20:36:49;11.80;63.40
44729;DHT22;30457;53.590;9.922;2022-12-29T20:41:15;11.70;63.40
44729;DHT22;30457;53.590;9.922;2022-12-29T20:45:41;11.70;63.60
44729;DHT22;30457;53.590;9.922;2022-12-29T20:50:07;11.60;63.50
44729;DHT22;30457;53.590;9.922;2022-12-29T20:54:33;11.60;63.60
44729;DHT22;30457;53.590;9.922;2022-12-29T20:58:58;11.50;63.60
44729;DHT22;30457;53.590;9.922;2022-12-29T21:03:24;11.40;63.60
44729;DHT22;30457;53.590;9.922;2022-12-29T21:07:50;11.40;64.50
44729;DHT22;30457;53.590;9.922;2022-12-29T21:12:16;11.30;63.80
44729;DHT22;30457;53.590;9.922;2022-12-29T21:16:41;11.30;64.00
44729;DHT22;30457;53.590;9.922;2022-12-29T21:21:12;11.30;64.20
44729;DHT22;30457;53.590;9.922;2022-12-29T21:25:42;11.20;64.20
44729;DHT22;30457;53.590;9.922;2022-12-29T21:30:08;11.20;64.30
44729;DHT22;30457;53.590;9.922;2022-12-29T21:34:34;11.20;64.20
44729;DHT22;30457;53.590;9.922;2022-12-29T21:39:00;11.20;64.20
44729;DHT22;30457;53.590;9.922;2022-12-29T21:43:27;11.10;64.10
44729;DHT22;30457;53.590;9.922;2022-12-29T21:48:00;11.10;64.10
44729;DHT22;30457;53.590;9.922;2022-12-29T21:52:45;11.10;63.90
44729;DHT22;30457;53.590;9.922;2022-12-29T21:57:12;11.10;63.80
44729;DHT22;30457;53.590;9.922;2022-12-29T22:01:58;11.00;63.60
44729;DHT22;30457;53.590;9.922;2022-12-29T22:06:42;11.00;63.50
44729;DHT22;30457;53.590;9.922;2022-12-29T22:11:27;11.00;63.60
44729;DHT22;30457;53.590;9.922;2022-12-29T22:16:11;10.90;63.60
44729;DHT22;30457;53.590;9.922;2022-12-29T22:20:37;10.90;63.40
44729;DHT22;30457;53.590;9.922;2022-12-29T22:25:03;10.80;63.30
44729;DHT22;30457;53.590;9.922;2022-12-29T22:29:29;10.80;63.30
44729;DHT22;30457;53.590;9.922;2022-12-29T22:33:59;10.80;63.30
44729;DHT22;30457;53.590;9.922;2022-12-29T22:38:25;10.80;63.30
44729;DHT22;30457;53.590;9.922;2022-12-29T22:42:51;10.70;63.30
44729;DHT22;30457;53.590;9.922;2022-12-29T22:47:16;10.70;63.40
44729;DHT22;30457;53.590;9.922;2022-12-29T22:51:42;10.70;64.40
44729;DHT22;30457;53.590;9.922;2022-12-29T22:56:10;10.70;63.70
44729;DHT22;30457;53.590;9.922;2022-12-29T23:00:36;10.70;63.80
44729;DHT22;30457;53.590;9.922;2022-12-29T23:05:02;10.70;63.90
44729;DHT22;30457;53.590;9.922;2022-12-29T23:09:27;10.70;63.90
44729;DHT22;30457;53.590;9.922;2022-12-29T23:13:53;10.70;63.90
44729;DHT22;30457;53.590;9.922;2022-12-29T23:18:19;10.70;63.80
44729;DHT22;30457;53.590;9.922;2022-12-29T23:22:44;10.70;63.80
44729;DHT22;30457;53.590;9.922;2022-12-29T23:27:10;10.70;63.80
44729;DHT22;30457;53.590;9.922;2022-12-29T23:31:36;10.70;63.80
44729;DHT22;30457;53.590;9.922;2022-12-29T23:36:03;10.70;63.90
44729;DHT22;30457;53.590;9.922;2022-12-29T23:40:28;10.70;63.90
44729;DHT22;30457;53.590;9.922;2022-12-29T23:44:54;10.70;64.00
44729;DHT22;30457;53.590;9.922;2022-12-29T23:49:20;10.70;64.20
44729;DHT22;30457;53.590;9.922;2022-12-29T23:53:45;10.80;64.20
44729;DHT22;30457;53.590;9.922;2022-12-29T23:58:11;10.80;64.30
